X  Schlie├čen METAR Luftfahrt Wetterdaten     EDDH Hamburg Helmut Schmidt Airport
Temperatur
12°C Temperatur
11°C Taupunkt
94% Feuchtigkeit



Wind
3 M/S
7 MPS
11 KM/S
6 KTS



240°
WSW
Aktuelle Wetterlage

Klar Klar
Luftdruck 1019.92 (hPa) - 30.12 (inHg)
Sichtweite 6.2 (Meile) - 10 (Km)
Flughafen
Flughafen Code EDDH

Position : Hamburg Helmut Schmidt Airport
Entfernung: 11 (Km)

Metar:
EDDH 292250Z AUTO 24006KT CAVOK 12/11 Q1020 NOSIG

Zeit: 30-09-2023 00:50 CEST